PWSweather.com
Personal Weather Stations
Station Observations
KCTHAMDEN
Dunbar Hill, Hamden, CT 06514

Dunbar HillHamden, CT 06514

Lat: 41.365437, Lon: -72.956532

Elevation: 200

Station Type: Davis Vantage Pro2+

www.hamdenweather.com

High Low Average
Temperature 45.9°F7.7°C 25.4°F-3.7°C 35.4°F1.9°C
Dew Point 26.4°F-3.1°C 21.0°F-6.1°C 23.4°F-4.8°C
Winds 7.1 mph 11.4 kmh Calm Calm 1.0 mph SSW1.6 kmh SSW
Wind Gusts 12.0 mph19.3 kmh -- 3.0 mph4.8 kmh
Humidity 84% 44% 63%
Pressure 30.11 in1019.6 mb 29.97 in1014.9 mb -
Precipitation 0.00 in0.0 mm - -
Hour Temp Dew Point Humidity Winds Wind Gusts Pressure Precip Precip Rate Daily Precip Total
12:00 AM 35.1°F1.7°C 23.0°F-5.0°C 61% 2.3 mph SSW3.7 kmh SSW 4.0 mph6.4 kmh 29.99 in1015.6 mb - 0.00 in0.0 mm 0.00 in0.0 mm
12:15 AM 34.9°F1.6°C 22.8°F-5.1°C 61% Calm Calm -- 29.99 in1015.6 mb - 0.00 in0.0 mm 0.00 in0.0 mm
12:30 AM 34.5°F1.4°C 23.2°F-4.9°C 63% 1.3 mph SSW2.1 kmh SSW 2.0 mph3.2 kmh 29.99 in1015.6 mb - 0.00 in0.0 mm 0.00 in0.0 mm
12:45 AM 33.8°F1.0°C 22.5°F-5.3°C 63% 3.5 mph S5.6 kmh S 6.0 mph9.7 kmh 29.98 in1015.2 mb - 0.00 in0.0 mm 0.00 in0.0 mm
01:00 AM 33.4°F0.8°C 22.5°F-5.3°C 64% 5.4 mph SW8.7 kmh SW 10.0 mph16.1 kmh 29.98 in1015.2 mb - 0.00 in0.0 mm 0.00 in0.0 mm
01:15 AM 33.4°F0.8°C 22.1°F-5.5°C 63% Calm Calm 1.0 mph1.6 kmh 29.99 in1015.6 mb - 0.00 in0.0 mm 0.00 in0.0 mm
01:30 AM 33.1°F0.6°C 22.2°F-5.4°C 64% Calm Calm -- 29.99 in1015.6 mb - 0.00 in0.0 mm 0.00 in0.0 mm
01:45 AM 32.3°F0.2°C 21.8°F-5.7°C 65% Calm Calm -- 29.99 in1015.6 mb - 0.00 in0.0 mm 0.00 in0.0 mm
02:00 AM 31.5°F-0.3°C 21.8°F-5.7°C 67% Calm Calm -- 29.99 in1015.6 mb - 0.00 in0.0 mm 0.00 in0.0 mm
02:15 AM 30.7°F-0.7°C 21.4°F-5.9°C 68% Calm Calm -- 29.99 in1015.6 mb - 0.00 in0.0 mm 0.00 in0.0 mm
02:30 AM 30.3°F-0.9°C 21.7°F-5.7°C 70% Calm Calm -- 29.99 in1015.6 mb - 0.00 in0.0 mm 0.00 in0.0 mm
02:45 AM 29.9°F-1.2°C 21.6°F-5.8°C 71% 0.3 mph SW0.5 kmh SW 3.0 mph4.8 kmh 29.99 in1015.6 mb - 0.00 in0.0 mm 0.00 in0.0 mm
03:00 AM 29.8°F-1.2°C 21.5°F-5.8°C 71% 0.2 mph SW0.3 kmh SW -- 29.98 in1015.2 mb - 0.00 in0.0 mm 0.00 in0.0 mm
03:15 AM 29.5°F-1.4°C 21.6°F-5.8°C 72% 0.1 mph SW0.2 kmh SW -- 29.98 in1015.2 mb - 0.00 in0.0 mm 0.00 in0.0 mm
03:30 AM 29.2°F-1.6°C 21.6°F-5.8°C 73% Calm Calm -- 29.97 in1014.9 mb - 0.00 in0.0 mm 0.00 in0.0 mm
03:45 AM 28.7°F-1.8°C 21.5°F-5.8°C 74% Calm Calm -- 29.97 in1014.9 mb - 0.00 in0.0 mm 0.00 in0.0 mm
04:00 AM 28.4°F-2.0°C 21.5°F-5.8°C 75% Calm Calm -- 29.98 in1015.2 mb - 0.00 in0.0 mm 0.00 in0.0 mm
04:15 AM 28.0°F-2.2°C 21.1°F-6.1°C 75% Calm Calm -- 29.99 in1015.6 mb - 0.00 in0.0 mm 0.00 in0.0 mm
04:30 AM 28.1°F-2.2°C 21.5°F-5.8°C 76% Calm Calm -- 30.00 in1015.9 mb - 0.00 in0.0 mm 0.00 in0.0 mm
04:45 AM 28.0°F-2.2°C 21.4°F-5.9°C 76% 0.7 mph ESE1.1 kmh ESE 1.0 mph1.6 kmh 30.00 in1015.9 mb - 0.00 in0.0 mm 0.00 in0.0 mm
05:00 AM 27.8°F-2.3°C 21.5°F-5.8°C 77% Calm Calm -- 30.00 in1015.9 mb - 0.00 in0.0 mm 0.00 in0.0 mm
05:15 AM 27.4°F-2.6°C 21.1°F-6.1°C 77% Calm Calm -- 30.01 in1016.3 mb - 0.00 in0.0 mm 0.00 in0.0 mm
05:30 AM 27.0°F-2.8°C 21.1°F-6.1°C 78% Calm Calm -- 30.02 in1016.6 mb - 0.00 in0.0 mm 0.00 in0.0 mm
05:45 AM 26.7°F-2.9°C 21.1°F-6.1°C 79% Calm Calm -- 30.02 in1016.6 mb - 0.00 in0.0 mm 0.00 in0.0 mm
06:00 AM 26.3°F-3.2°C 21.0°F-6.1°C 80% Calm Calm -- 30.03 in1016.9 mb - 0.00 in0.0 mm 0.00 in0.0 mm
06:15 AM 26.1°F-3.3°C 21.0°F-6.1°C 81% Calm Calm -- 30.03 in1016.9 mb - 0.00 in0.0 mm 0.00 in0.0 mm
06:30 AM 25.8°F-3.4°C 21.1°F-6.1°C 82% Calm Calm -- 30.04 in1017.3 mb - 0.00 in0.0 mm 0.00 in0.0 mm
06:45 AM 25.6°F-3.6°C 21.2°F-6.0°C 83% Calm Calm -- 30.04 in1017.3 mb - 0.00 in0.0 mm 0.00 in0.0 mm
07:00 AM 25.4°F-3.7°C 21.2°F-6.0°C 84% 2.3 mph S3.7 kmh S 4.0 mph6.4 kmh 30.04 in1017.3 mb - 0.00 in0.0 mm 0.00 in0.0 mm
07:15 AM 25.4°F-3.7°C 21.2°F-6.0°C 84% Calm Calm -- 30.03 in1016.9 mb - 0.00 in0.0 mm 0.00 in0.0 mm
07:30 AM 25.7°F-3.5°C 21.3°F-5.9°C 83% 0.9 mph S1.4 kmh S 2.0 mph3.2 kmh 30.04 in1017.3 mb - 0.00 in0.0 mm 0.00 in0.0 mm
07:45 AM 26.1°F-3.3°C 21.3°F-5.9°C 82% 1.8 mph SSE2.9 kmh SSE 3.0 mph4.8 kmh 30.04 in1017.3 mb - 0.00 in0.0 mm 0.00 in0.0 mm
08:00 AM 27.3°F-2.6°C 22.2°F-5.4°C 81% 2.6 mph SSW4.2 kmh SSW 4.0 mph6.4 kmh 30.04 in1017.3 mb - 0.00 in0.0 mm 0.00 in0.0 mm
08:15 AM 29.0°F-1.7°C 22.4°F-5.3°C 76% 1.5 mph N2.4 kmh N 2.0 mph3.2 kmh 30.04 in1017.3 mb - 0.00 in0.0 mm 0.00 in0.0 mm
08:30 AM 30.8°F-0.7°C 22.5°F-5.3°C 71% Calm Calm -- 30.05 in1017.6 mb - 0.00 in0.0 mm 0.00 in0.0 mm
08:45 AM 32.9°F0.5°C 22.8°F-5.1°C 66% 3.7 mph SSW6.0 kmh SSW 10.0 mph16.1 kmh 30.05 in1017.6 mb - 0.00 in0.0 mm 0.00 in0.0 mm
09:00 AM 34.0°F1.1°C 22.7°F-5.2°C 63% 0.9 mph WSW1.4 kmh WSW 5.0 mph8.0 kmh 30.05 in1017.6 mb - 0.00 in0.0 mm 0.00 in0.0 mm
09:15 AM 35.3°F1.8°C 23.2°F-4.9°C 61% 1.4 mph NE2.3 kmh NE 3.0 mph4.8 kmh 30.05 in1017.6 mb - 0.00 in0.0 mm 0.00 in0.0 mm
09:30 AM 36.5°F2.5°C 23.9°F-4.5°C 60% 0.7 mph S1.1 kmh S -- 30.05 in1017.6 mb - 0.00 in0.0 mm 0.00 in0.0 mm
09:45 AM 37.5°F3.1°C 23.6°F-4.7°C 57% 4.9 mph N7.9 kmh N 9.0 mph14.5 kmh 30.05 in1017.6 mb - 0.00 in0.0 mm 0.00 in0.0 mm
10:00 AM 37.1°F2.8°C 23.7°F-4.6°C 58% 4.8 mph NNW7.7 kmh NNW 12.0 mph19.3 kmh 30.05 in1017.6 mb - 0.00 in0.0 mm 0.00 in0.0 mm
10:15 AM 37.5°F3.1°C 23.6°F-4.7°C 57% 2.3 mph WSW3.7 kmh WSW 3.0 mph4.8 kmh 30.05 in1017.6 mb - 0.00 in0.0 mm 0.00 in0.0 mm
10:30 AM 38.0°F3.3°C 23.7°F-4.6°C 56% Calm Calm -- 30.06 in1017.9 mb - 0.00 in0.0 mm 0.00 in0.0 mm
10:45 AM 38.4°F3.6°C 24.1°F-4.4°C 56% 3.1 mph SW5.0 kmh SW 10.0 mph16.1 kmh 30.05 in1017.6 mb - 0.00 in0.0 mm 0.00 in0.0 mm
11:00 AM 38.6°F3.7°C 23.8°F-4.6°C 55% 2.3 mph NNW3.7 kmh NNW 4.0 mph6.4 kmh 30.06 in1017.9 mb - 0.00 in0.0 mm 0.00 in0.0 mm
11:15 AM 40.5°F4.7°C 24.2°F-4.3°C 52% 7.1 mph SW11.4 kmh SW 12.0 mph19.3 kmh 30.06 in1017.9 mb - 0.00 in0.0 mm 0.00 in0.0 mm
11:30 AM 39.4°F4.1°C 23.2°F-4.9°C 52% 2.7 mph NNE4.3 kmh NNE 6.0 mph9.7 kmh 30.06 in1017.9 mb - 0.00 in0.0 mm 0.00 in0.0 mm
11:45 AM 40.1°F4.5°C 23.9°F-4.5°C 52% 6.9 mph NNE11.1 kmh NNE 9.0 mph14.5 kmh 30.05 in1017.6 mb - 0.00 in0.0 mm 0.00 in0.0 mm
12:00 PM 40.1°F4.5°C 23.9°F-4.5°C 52% 3.8 mph W6.1 kmh W 11.0 mph17.7 kmh 30.05 in1017.6 mb - 0.00 in0.0 mm 0.00 in0.0 mm
12:15 PM 41.5°F5.3°C 24.7°F-4.1°C 51% 3.2 mph NE5.1 kmh NE 5.0 mph8.0 kmh 30.05 in1017.6 mb - 0.00 in0.0 mm 0.00 in0.0 mm
12:30 PM 41.7°F5.4°C 25.4°F-3.7°C 52% 3.8 mph WSW6.1 kmh WSW 7.0 mph11.3 kmh 30.05 in1017.6 mb - 0.00 in0.0 mm 0.00 in0.0 mm
12:45 PM 41.8°F5.4°C 24.5°F-4.2°C 50% 1.3 mph W2.1 kmh W -- 30.04 in1017.3 mb - 0.00 in0.0 mm 0.00 in0.0 mm
01:00 PM 41.5°F5.3°C 23.7°F-4.6°C 49% 4.3 mph WNW6.9 kmh WNW 7.0 mph11.3 kmh 30.04 in1017.3 mb - 0.00 in0.0 mm 0.00 in0.0 mm
01:15 PM 41.7°F5.4°C 23.9°F-4.5°C 49% 2.1 mph S3.4 kmh S 1.0 mph1.6 kmh 30.04 in1017.3 mb - 0.00 in0.0 mm 0.00 in0.0 mm
01:30 PM 43.1°F6.2°C 26.2°F-3.2°C 51% 1.5 mph WSW2.4 kmh WSW 5.0 mph8.0 kmh 30.04 in1017.3 mb - 0.00 in0.0 mm 0.00 in0.0 mm
01:45 PM 43.6°F6.4°C 24.6°F-4.1°C 47% 3.7 mph W6.0 kmh W 8.0 mph12.9 kmh 30.04 in1017.3 mb - 0.00 in0.0 mm 0.00 in0.0 mm
02:00 PM 43.0°F6.1°C 23.6°F-4.7°C 46% Calm Calm 1.0 mph1.6 kmh 30.03 in1016.9 mb - 0.00 in0.0 mm 0.00 in0.0 mm
02:15 PM 43.3°F6.3°C 24.9°F-3.9°C 48% 1.7 mph SW2.7 kmh SW 11.0 mph17.7 kmh 30.02 in1016.6 mb - 0.00 in0.0 mm 0.00 in0.0 mm
02:30 PM 43.9°F6.6°C 25.5°F-3.6°C 48% 3.4 mph NE5.5 kmh NE 5.0 mph8.0 kmh 30.02 in1016.6 mb - 0.00 in0.0 mm 0.00 in0.0 mm
02:45 PM 44.5°F6.9°C 24.5°F-4.2°C 45% 5.0 mph N8.0 kmh N 7.0 mph11.3 kmh 30.02 in1016.6 mb - 0.00 in0.0 mm 0.00 in0.0 mm
03:00 PM 44.5°F6.9°C 24.5°F-4.2°C 45% 4.6 mph NNW7.4 kmh NNW 11.0 mph17.7 kmh 30.02 in1016.6 mb - 0.00 in0.0 mm 0.00 in0.0 mm
03:15 PM 44.9°F7.2°C 26.4°F-3.1°C 48% 2.6 mph SW4.2 kmh SW 4.0 mph6.4 kmh 30.01 in1016.3 mb - 0.00 in0.0 mm 0.00 in0.0 mm
03:30 PM 45.1°F7.3°C 25.5°F-3.6°C 46% 2.5 mph SW4.0 kmh SW 3.0 mph4.8 kmh 30.02 in1016.6 mb - 0.00 in0.0 mm 0.00 in0.0 mm
03:45 PM 45.6°F7.6°C 25.5°F-3.6°C 45% 3.0 mph N4.8 kmh N 5.0 mph8.0 kmh 30.01 in1016.3 mb - 0.00 in0.0 mm 0.00 in0.0 mm
04:00 PM 45.9°F7.7°C 25.7°F-3.5°C 45% 1.7 mph SW2.7 kmh SW 7.0 mph11.3 kmh 30.01 in1016.3 mb - 0.00 in0.0 mm 0.00 in0.0 mm
04:15 PM 45.4°F7.4°C 24.8°F-4.0°C 44% 2.0 mph NNE3.2 kmh NNE 3.0 mph4.8 kmh 30.01 in1016.3 mb - 0.00 in0.0 mm 0.00 in0.0 mm
04:30 PM 44.9°F7.2°C 25.4°F-3.7°C 46% 3.2 mph SSW5.1 kmh SSW 7.0 mph11.3 kmh 30.01 in1016.3 mb - 0.00 in0.0 mm 0.00 in0.0 mm
04:45 PM 44.5°F6.9°C 25.0°F-3.9°C 46% 2.9 mph SW4.7 kmh SW 4.0 mph6.4 kmh 30.01 in1016.3 mb - 0.00 in0.0 mm 0.00 in0.0 mm
05:00 PM 43.8°F6.6°C 23.8°F-4.6°C 45% 3.5 mph NNW5.6 kmh NNW 4.0 mph6.4 kmh 30.01 in1016.3 mb - 0.00 in0.0 mm 0.00 in0.0 mm
05:15 PM 43.3°F6.3°C 24.4°F-4.2°C 47% 5.6 mph WSW9.0 kmh WSW 8.0 mph12.9 kmh 30.02 in1016.6 mb - 0.00 in0.0 mm 0.00 in0.0 mm
05:30 PM 42.7°F5.9°C 23.8°F-4.6°C 47% 3.5 mph WSW5.6 kmh WSW 8.0 mph12.9 kmh 30.02 in1016.6 mb - 0.00 in0.0 mm 0.00 in0.0 mm
05:45 PM 42.1°F5.6°C 24.3°F-4.3°C 49% 1.7 mph WSW2.7 kmh WSW 2.0 mph3.2 kmh 30.03 in1016.9 mb - 0.00 in0.0 mm 0.00 in0.0 mm
06:00 PM 41.6°F5.3°C 24.3°F-4.3°C 50% Calm Calm -- 30.03 in1016.9 mb - 0.00 in0.0 mm 0.00 in0.0 mm
06:15 PM 41.1°F5.1°C 24.3°F-4.3°C 51% 0.8 mph SW1.3 kmh SW -- 30.04 in1017.3 mb - 0.00 in0.0 mm 0.00 in0.0 mm
06:30 PM 40.6°F4.8°C 24.4°F-4.2°C 52% Calm Calm -- 30.05 in1017.6 mb - 0.00 in0.0 mm 0.00 in0.0 mm
06:45 PM 40.3°F4.6°C 23.6°F-4.7°C 51% 2.8 mph W4.5 kmh W 4.0 mph6.4 kmh 30.06 in1017.9 mb - 0.00 in0.0 mm 0.00 in0.0 mm
07:00 PM 39.8°F4.3°C 24.0°F-4.4°C 53% 0.1 mph W0.2 kmh W 1.0 mph1.6 kmh 30.07 in1018.3 mb - 0.00 in0.0 mm 0.00 in0.0 mm
07:15 PM 39.2°F4.0°C 23.9°F-4.5°C 54% Calm Calm -- 30.07 in1018.3 mb - 0.00 in0.0 mm 0.00 in0.0 mm
07:30 PM 38.6°F3.7°C 24.7°F-4.1°C 57% Calm Calm -- 30.07 in1018.3 mb - 0.00 in0.0 mm 0.00 in0.0 mm
07:45 PM 38.1°F3.4°C 23.8°F-4.6°C 56% Calm Calm -- 30.08 in1018.6 mb - 0.00 in0.0 mm 0.00 in0.0 mm
08:00 PM 37.5°F3.1°C 24.5°F-4.2°C 59% Calm Calm -- 30.09 in1019.0 mb - 0.00 in0.0 mm 0.00 in0.0 mm
08:15 PM 36.9°F2.7°C 24.7°F-4.1°C 61% 0.8 mph N1.3 kmh N 2.0 mph3.2 kmh 30.10 in1019.3 mb - 0.00 in0.0 mm 0.00 in0.0 mm
08:30 PM 36.2°F2.3°C 24.8°F-4.0°C 63% Calm Calm -- 30.10 in1019.3 mb - 0.00 in0.0 mm 0.00 in0.0 mm
08:45 PM 35.4°F1.9°C 24.4°F-4.2°C 64% Calm Calm -- 30.10 in1019.3 mb - 0.00 in0.0 mm 0.00 in0.0 mm
09:00 PM 34.8°F1.6°C 24.9°F-3.9°C 67% Calm Calm -- 30.10 in1019.3 mb - 0.00 in0.0 mm 0.00 in0.0 mm
09:15 PM 34.3°F1.3°C 24.1°F-4.4°C 66% 0.1 mph N0.2 kmh N -- 30.11 in1019.6 mb - 0.00 in0.0 mm 0.00 in0.0 mm
09:30 PM 34.2°F1.2°C 24.4°F-4.2°C 67% Calm Calm -- 30.11 in1019.6 mb - 0.00 in0.0 mm 0.00 in0.0 mm
09:45 PM 33.9°F1.1°C 24.1°F-4.4°C 67% Calm Calm -- 30.11 in1019.6 mb - 0.00 in0.0 mm 0.00 in0.0 mm
10:00 PM 33.8°F1.0°C 24.0°F-4.4°C 67% Calm Calm -- 30.11 in1019.6 mb - 0.00 in0.0 mm 0.00 in0.0 mm
10:15 PM 33.3°F0.7°C 24.5°F-4.2°C 70% Calm Calm -- 30.11 in1019.6 mb - 0.00 in0.0 mm 0.00 in0.0 mm
10:30 PM 32.4°F0.2°C 24.7°F-4.1°C 73% Calm Calm -- 30.10 in1019.3 mb - 0.00 in0.0 mm 0.00 in0.0 mm
10:45 PM 31.8°F-0.1°C 24.1°F-4.4°C 73% Calm Calm -- 30.10 in1019.3 mb - 0.00 in0.0 mm 0.00 in0.0 mm
11:00 PM 31.7°F-0.2°C 23.7°F-4.6°C 72% 2.0 mph WSW3.2 kmh WSW 3.0 mph4.8 kmh 30.10 in1019.3 mb - 0.00 in0.0 mm 0.00 in0.0 mm
11:15 PM 32.1°F0.1°C 23.8°F-4.6°C 71% Calm Calm -- 30.09 in1019.0 mb - 0.00 in0.0 mm 0.00 in0.0 mm
11:30 PM 32.2°F0.1°C 23.5°F-4.7°C 70% Calm Calm -- 30.09 in1019.0 mb - 0.00 in0.0 mm 0.00 in0.0 mm
11:45 PM 32.3°F0.2°C 23.6°F-4.7°C 70% Calm Calm -- 30.09 in1019.0 mb - 0.00 in0.0 mm 0.00 in0.0 mm